Terminal Aerodrome Forecast
Issued by NWS Jacksonville, FL

Home | Current Version | Previous Version | Text Only | Print | Product List | Glossary On
Versions: 1 2 3 4 5 6 7 8 9 10 11 12 13 14 15 16 17 18
000
FTUS42 KJAX 251402 AAB
TAFJAX
TAF AMD
KJAX 251402Z 2514/2612 12010KT P6SM VCSH SCT015 SCT030
      TEMPO 2514/2516 6SM -SHRA BKN030
     FM251600 12014G20KT P6SM BKN035
     FM252300 13010KT P6SM SCT035=

USA.gov is the U.S. government's official web portal to all federal, state and local government web resources and services.